createdAt,value
2016-06-06T08:40:05.058Z,5272
2016-06-06T08:40:17.667Z,5252
2016-06-06T08:41:17.702Z,5236
2016-06-06T08:42:17.720Z,5220
2016-06-06T08:43:17.755Z,5212
2016-06-06T08:44:17.647Z,5208
2016-06-06T08:45:17.838Z,5192
2016-06-06T08:46:17.840Z,5168
2016-06-06T08:47:17.858Z,5144
2016-06-06T08:48:17.908Z,5112
2016-06-06T08:49:17.771Z,5092
2016-06-06T08:50:17.788Z,5056
2016-06-06T08:51:17.994Z,5024
2016-06-06T08:52:18.013Z,5008
2016-06-06T08:53:18.046Z,4980
2016-06-06T08:54:18.065Z,4956
2016-06-06T08:55:18.083Z,4924
2016-06-06T08:56:18.117Z,4884
2016-06-06T08:57:18.151Z,4856
2016-06-06T08:58:18.200Z,4812
2016-06-06T08:59:18.641Z,4776
2016-06-06T09:00:18.096Z,4752
2016-06-06T09:01:18.271Z,4744
2016-06-06T09:02:18.306Z,4728
2016-06-06T09:03:18.323Z,4712
2016-06-06T09:04:18.357Z,4696
2016-06-06T09:05:18.423Z,4672
2016-06-06T09:06:18.284Z,4644
2016-06-06T09:07:18.475Z,4608
2016-06-06T09:08:18.477Z,4580
2016-06-06T09:09:18.512Z,4552
2016-06-06T09:10:18.561Z,4520
2016-06-06T09:11:18.564Z,4488
2016-06-06T09:12:18.598Z,4456
2016-06-06T09:13:18.647Z,4420
2016-06-06T09:14:19.291Z,4392
2016-06-06T09:15:18.683Z,4364
2016-06-06T09:16:18.718Z,4340
2016-06-06T09:17:18.752Z,4320
2016-06-06T09:18:18.770Z,4304
2016-06-06T09:19:18.804Z,4308
2016-06-06T09:20:18.822Z,4320
2016-06-06T09:21:18.857Z,4324
2016-06-06T09:22:18.890Z,4312
2016-06-06T09:23:18.924Z,4300
2016-06-06T09:24:18.974Z,4284
2016-06-06T09:25:18.976Z,4260
2016-06-06T09:26:19.057Z,4224
2016-06-06T09:27:19.029Z,4204
2016-06-06T09:28:18.907Z,4188
2016-06-06T09:29:19.753Z,4160
2016-06-06T09:30:19.115Z,4128
2016-06-06T09:31:19.148Z,4084
2016-06-06T09:32:19.167Z,4044
2016-06-06T09:33:19.201Z,4020
2016-06-06T09:34:19.251Z,3992
2016-06-06T09:35:19.270Z,3968
2016-06-06T09:36:19.287Z,3952
2016-06-06T09:37:19.321Z,3936
2016-06-06T09:38:19.355Z,3920
2016-06-06T09:39:19.373Z,3896
2016-06-06T09:40:19.408Z,3884
2016-06-06T09:41:19.426Z,3872
2016-06-06T09:42:19.459Z,3868
2016-06-06T09:43:19.509Z,3864
2016-06-06T09:44:19.386Z,3852
2016-06-06T09:45:19.453Z,3832
2016-06-06T09:46:19.627Z,3816
2016-06-06T09:47:19.614Z,3800
2016-06-06T09:48:19.647Z,3792
2016-06-06T09:49:19.682Z,3788
2016-06-06T09:50:19.699Z,3776
2016-06-06T09:51:19.749Z,3756
2016-06-06T09:52:19.752Z,3744
2016-06-06T09:53:19.771Z,3728
2016-06-06T09:54:19.821Z,3720
2016-06-06T09:55:19.838Z,3720
2016-06-06T09:56:19.857Z,3704
2016-06-06T09:57:19.891Z,3692
2016-06-06T09:58:19.956Z,3684
2016-06-06T09:59:20.709Z,3656
2016-06-06T10:00:19.977Z,3628
2016-06-06T10:01:20.011Z,3604
2016-06-06T10:02:20.029Z,3584
2016-06-06T10:03:20.063Z,3572
2016-06-06T10:04:20.097Z,3564
2016-06-06T10:05:20.131Z,3560
2016-06-06T10:06:20.181Z,3556
2016-06-06T10:07:20.184Z,3552
2016-06-06T10:08:20.233Z,3536
2016-06-06T10:09:20.251Z,3516
2016-06-06T10:10:20.113Z,3504
2016-06-06T10:11:20.148Z,3496
2016-06-06T10:12:20.181Z,3488
2016-06-06T10:13:20.355Z,3484
2016-06-06T10:14:21.968Z,3468
2016-06-06T10:15:20.455Z,3436
2016-06-06T10:16:20.286Z,3424
2016-06-06T10:17:20.475Z,3420
2016-06-06T10:18:20.353Z,3412
2016-06-06T10:19:20.528Z,3404
2016-06-06T10:20:20.562Z,3396
2016-06-06T10:21:20.580Z,3380
2016-06-06T10:22:20.614Z,3364
2016-06-06T10:23:20.649Z,3352
2016-06-06T10:24:20.682Z,3348
2016-06-06T10:25:20.732Z,3340
2016-06-06T10:26:20.719Z,3336
2016-06-06T10:27:20.768Z,3324
2016-06-06T10:28:20.786Z,3300
2016-06-06T10:29:20.680Z,3280
2016-06-06T10:30:20.838Z,3256
2016-06-06T10:31:20.888Z,3224
2016-06-06T10:32:20.906Z,3196
2016-06-06T10:33:20.925Z,3176
2016-06-06T10:34:20.959Z,3160
2016-06-06T10:35:20.977Z,3156
2016-06-06T10:36:21.011Z,3172
2016-06-06T10:37:21.045Z,3172
2016-06-06T10:38:21.078Z,3156
2016-06-06T10:39:21.098Z,3132
2016-06-06T10:40:21.131Z,3112
2016-06-06T10:41:21.165Z,3112
2016-06-06T10:42:21.199Z,3104
2016-06-06T10:43:21.217Z,3092
2016-06-06T10:44:21.236Z,3092
2016-06-06T10:45:21.270Z,3080
2016-06-06T10:46:21.319Z,3076
2016-06-06T10:47:21.338Z,3068
2016-06-06T10:48:21.356Z,3048
2016-06-06T10:49:21.389Z,3032
2016-06-06T10:50:21.424Z,3020
2016-06-06T10:51:21.442Z,3012
2016-06-06T10:52:21.477Z,2996
2016-06-06T10:53:21.494Z,2976
2016-06-06T10:54:21.528Z,2976
2016-06-06T10:55:21.563Z,2964
2016-06-06T10:56:21.580Z,2960
2016-06-06T10:57:21.615Z,2956
2016-06-06T10:58:21.632Z,2956
2016-06-06T10:59:22.370Z,2956
2016-06-06T11:00:21.748Z,2956
2016-06-06T11:01:21.735Z,2940
2016-06-06T11:02:21.753Z,2920
2016-06-06T11:03:21.787Z,2896
2016-06-06T11:04:21.821Z,2876
2016-06-06T11:05:21.871Z,2884
2016-06-06T11:06:21.874Z,2880
2016-06-06T11:07:21.907Z,2872
2016-06-06T11:08:21.925Z,2868
2016-06-06T11:09:21.959Z,2856
2016-06-06T11:10:21.993Z,2852
2016-06-06T11:11:22.043Z,2848
2016-06-06T11:12:22.045Z,2844
2016-06-06T11:13:22.064Z,2844
2016-06-06T11:14:22.645Z,2836
2016-06-06T11:15:22.553Z,2824
2016-06-06T11:16:22.150Z,2828
2016-06-06T11:17:22.214Z,2820
2016-06-06T11:18:22.218Z,2772
2016-06-06T11:19:22.252Z,2800
2016-06-06T11:20:22.286Z,2800
2016-06-06T11:21:22.305Z,2792
2016-06-06T11:22:22.338Z,2788
2016-06-06T11:23:22.356Z,2788
2016-06-06T11:24:22.391Z,2788
2016-06-06T11:25:22.440Z,2776
2016-06-06T11:26:22.458Z,2760
2016-06-06T11:27:22.477Z,2740
2016-06-06T11:28:22.494Z,2752
2016-06-06T11:29:22.419Z,2744
2016-06-06T11:30:22.407Z,2748
2016-06-06T11:31:22.581Z,2752
2016-06-06T11:32:22.615Z,2720
2016-06-06T11:33:22.649Z,2688
2016-06-06T11:34:22.698Z,2688
2016-06-06T11:35:22.717Z,2704
2016-06-06T11:36:22.423Z,2688
2016-06-06T11:37:22.769Z,2676
2016-06-06T11:38:22.787Z,2660
2016-06-06T11:39:22.806Z,2668
2016-06-06T11:40:22.855Z,2652
2016-06-06T11:41:22.873Z,2636
2016-06-06T11:42:22.892Z,2620
2016-06-06T11:43:22.926Z,2628
2016-06-06T11:44:23.334Z,2648
2016-06-06T11:45:23.181Z,2684
2016-06-06T11:46:23.012Z,2696
2016-06-06T11:47:23.030Z,2684
2016-06-06T11:48:23.080Z,2644
2016-06-06T11:49:23.083Z,2624
2016-06-06T11:50:23.117Z,2612
2016-06-06T11:51:22.994Z,2600
2016-06-06T11:52:23.169Z,2576
2016-06-06T11:53:23.062Z,2600
2016-06-06T11:54:23.064Z,2600
2016-06-06T11:55:23.255Z,2604
2016-06-06T11:56:23.133Z,2596
2016-06-06T11:57:23.307Z,2580
2016-06-06T11:58:23.357Z,2572
2016-06-06T11:59:23.390Z,2564
2016-06-06T12:00:23.285Z,2548
2016-06-06T12:01:23.271Z,2536
2016-06-06T12:02:23.460Z,2524
2016-06-06T12:03:23.480Z,2528
2016-06-06T12:04:23.374Z,2528
2016-06-06T12:05:23.563Z,2516
2016-06-06T12:06:23.425Z,2520
2016-06-06T12:07:23.616Z,2520
2016-06-06T12:08:23.634Z,2520
2016-06-06T12:09:23.667Z,2508
2016-06-06T12:10:23.702Z,2488
2016-06-06T12:11:23.720Z,2464
2016-06-06T12:12:23.738Z,2448
2016-06-06T12:13:23.788Z,2460
2016-06-06T12:14:24.009Z,2476
2016-06-06T12:15:23.715Z,2504
2016-06-06T12:16:23.859Z,2528
2016-06-06T12:17:23.892Z,2560
2016-06-06T12:18:23.911Z,2584
2016-06-06T12:19:23.945Z,2604
2016-06-06T12:20:23.978Z,2592
2016-06-06T12:21:24.012Z,2564
2016-06-06T12:22:24.031Z,2516
2016-06-06T12:23:24.064Z,2496
2016-06-06T12:24:24.083Z,2480
2016-06-06T12:25:24.147Z,2500
2016-06-06T12:26:24.150Z,2532
2016-06-06T12:27:24.028Z,2552
2016-06-06T12:28:24.202Z,2532
2016-06-06T12:29:24.252Z,2520
2016-06-06T12:30:24.849Z,2532
2016-06-06T12:31:24.164Z,2528
2016-06-06T12:32:24.308Z,2576
2016-06-06T12:33:24.341Z,2624
2016-06-06T12:34:24.390Z,2660
2016-06-06T12:35:24.394Z,2700
2016-06-06T12:36:24.427Z,2724
2016-06-06T12:37:24.759Z,2728
2016-06-06T12:38:24.682Z,2736
2016-06-06T12:39:24.514Z,2768
2016-06-06T12:40:24.548Z,2800
2016-06-06T12:41:24.410Z,2812
2016-06-06T12:42:24.600Z,2860
2016-06-06T12:43:24.479Z,2892
2016-06-06T12:44:24.528Z,2936
2016-06-06T12:45:24.686Z,2948
2016-06-06T12:46:24.751Z,2960
2016-06-06T12:47:24.739Z,3008
2016-06-06T12:48:24.617Z,3008
2016-06-06T12:49:24.791Z,3048
2016-06-06T12:50:24.825Z,3060
2016-06-06T12:51:24.843Z,3056
2016-06-06T12:52:24.877Z,2992
2016-06-06T12:53:24.911Z,2964
2016-06-06T12:54:24.930Z,2812
2016-06-06T12:55:24.823Z,2816
2016-06-06T12:56:24.997Z,2784
2016-06-06T12:57:25.015Z,2640
2016-06-06T12:58:25.065Z,2516
2016-06-06T12:59:25.333Z,2516
2016-06-06T13:00:25.117Z,2508
2016-06-06T13:01:25.136Z,2392
2016-06-06T13:02:25.154Z,2340
2016-06-06T13:03:25.047Z,2320
2016-06-06T13:04:25.221Z,2296
2016-06-06T13:05:25.256Z,2276
2016-06-06T13:06:25.274Z,2268
2016-06-06T13:07:25.307Z,2256
2016-06-06T13:08:25.343Z,2224
2016-06-06T13:09:25.360Z,2196
2016-06-06T13:10:25.394Z,2152
2016-06-06T13:11:25.412Z,2112
2016-06-06T13:12:25.446Z,2072
2016-06-06T13:13:25.481Z,2028
2016-06-06T13:14:25.374Z,1988
2016-06-06T13:15:25.517Z,1940
2016-06-06T13:16:25.567Z,1896
2016-06-06T13:17:25.600Z,1864
2016-06-06T13:18:25.619Z,1816
2016-06-06T13:19:25.653Z,1772
2016-06-06T13:20:25.671Z,1724
2016-06-06T13:21:25.720Z,1684
2016-06-06T13:22:25.755Z,1652
2016-06-06T13:23:25.617Z,1616
2016-06-06T13:24:25.635Z,1588
2016-06-06T13:25:25.809Z,1556
2016-06-06T13:26:25.859Z,1528
2016-06-06T13:27:25.877Z,1504
2016-06-06T13:28:25.896Z,1480
2016-06-06T13:29:25.930Z,1468
2016-06-06T13:30:25.932Z,1452
2016-06-06T13:31:25.982Z,1444
2016-06-06T13:32:26.016Z,1432
2016-06-06T13:33:26.049Z,1428
2016-06-06T13:34:26.099Z,1420
2016-06-06T13:35:26.086Z,1420
2016-06-06T13:36:25.980Z,1420
2016-06-06T13:37:26.185Z,1424
2016-06-06T13:38:26.188Z,1432
2016-06-06T13:39:26.207Z,1440
2016-06-06T13:40:26.240Z,1448
2016-06-06T13:41:26.274Z,1460
2016-06-06T13:42:26.292Z,1472
2016-06-06T13:43:26.327Z,1488
2016-06-06T13:44:26.221Z,1496
2016-06-06T13:45:26.770Z,1504
2016-06-06T13:46:26.412Z,1512
2016-06-06T13:47:26.448Z,1516
2016-06-06T13:48:26.325Z,1520
2016-06-06T13:49:26.342Z,1532
2016-06-06T13:50:26.376Z,1532
2016-06-06T13:51:26.567Z,1540
2016-06-06T13:52:26.586Z,1548
2016-06-06T13:53:26.619Z,1556
2016-06-06T13:54:26.481Z,1560
2016-06-06T13:55:26.656Z,1564
2016-06-06T13:56:26.689Z,1580
2016-06-06T13:57:26.599Z,1584
2016-06-06T13:58:26.757Z,1592
2016-06-06T13:59:27.619Z,1604
2016-06-06T14:00:27.591Z,1620
2016-06-06T14:01:26.828Z,1632
2016-06-06T14:02:26.753Z,1648
2016-06-06T14:03:26.958Z,1668
2016-06-06T14:04:26.774Z,1684
2016-06-06T14:05:26.949Z,1704
2016-06-06T14:06:26.983Z,1720
2016-06-06T14:07:27.454Z,1744
2016-06-06T14:08:27.082Z,1772
2016-06-06T14:09:27.099Z,1804
2016-06-06T14:10:27.399Z,1836
2016-06-06T14:11:27.152Z,1872
2016-06-06T14:12:26.983Z,1916
2016-06-06T14:13:27.188Z,1956
2016-06-06T14:14:27.629Z,2004
2016-06-06T14:15:27.991Z,2052
2016-06-06T14:16:27.260Z,2104
2016-06-06T14:17:27.528Z,2160
2016-06-06T14:18:27.342Z,2224
2016-06-06T14:19:26.892Z,2292
2016-06-06T14:20:31.254Z,2360
2016-06-06T14:21:27.413Z,2424
2016-06-06T14:22:27.431Z,2492
2016-06-06T14:23:27.512Z,2568
2016-06-06T14:24:27.531Z,2640
2016-06-06T14:25:27.643Z,2700
2016-06-06T14:26:27.598Z,2764
2016-06-06T14:27:27.585Z,2812
2016-06-06T14:28:27.854Z,2856
2016-06-06T14:29:29.231Z,2884
2016-06-06T14:30:27.733Z,2900
2016-06-06T14:31:27.566Z,2900
2016-06-06T14:32:27.724Z,2896
2016-06-06T14:33:27.758Z,2900
2016-06-06T14:34:27.838Z,2904
2016-06-06T14:35:27.794Z,2920
2016-06-06T14:36:27.829Z,2936
2016-06-06T14:37:28.113Z,2952
2016-06-06T14:38:27.896Z,2972
2016-06-06T14:39:27.775Z,2988
2016-06-06T14:40:28.183Z,3016
2016-06-06T14:41:27.982Z,3052
2016-06-06T14:42:28.079Z,3100
2016-06-06T14:43:28.019Z,3160
2016-06-06T14:44:28.819Z,3236
2016-06-06T14:45:29.056Z,3304
2016-06-06T14:46:28.168Z,3372
2016-06-06T14:47:28.139Z,3424
2016-06-06T14:48:28.018Z,3472
2016-06-06T14:49:28.254Z,3496
2016-06-06T14:50:28.287Z,3508
2016-06-06T14:51:28.244Z,3516
2016-06-06T14:52:28.340Z,3508
2016-06-06T14:53:28.170Z,3512
2016-06-06T14:54:28.595Z,3520
2016-06-06T14:55:28.380Z,3528
2016-06-06T14:56:28.445Z,3528
2016-06-06T14:57:28.431Z,3524
2016-06-06T14:58:28.514Z,3516
2016-06-06T14:59:29.141Z,3500
2016-06-06T15:00:29.534Z,3484
2016-06-06T15:01:30.661Z,3460
2016-06-06T15:02:28.570Z,3432
2016-06-06T15:03:28.433Z,3396
2016-06-06T15:04:28.622Z,3360
2016-06-06T15:05:28.641Z,3328
2016-06-06T15:06:28.675Z,3292
2016-06-06T15:07:28.552Z,3260
2016-06-06T15:08:28.728Z,3236
2016-06-06T15:09:28.761Z,3208
2016-06-06T15:10:28.795Z,3180
2016-06-06T15:11:28.673Z,3156
2016-06-06T15:12:28.847Z,3140
2016-06-06T15:13:28.724Z,3128
2016-06-06T15:14:28.931Z,3124
2016-06-06T15:15:29.230Z,3120
2016-06-06T15:16:28.967Z,3132
2016-06-06T15:17:29.001Z,3140
2016-06-06T15:18:29.020Z,3148
2016-06-06T15:19:29.054Z,3156
2016-06-06T15:20:29.073Z,3164
2016-06-06T15:21:29.106Z,3180
2016-06-06T15:22:29.156Z,3192
2016-06-06T15:23:29.174Z,3204
2016-06-06T15:24:29.193Z,3220
2016-06-06T15:25:29.211Z,3232
2016-06-06T15:26:29.244Z,3244
2016-06-06T15:27:29.278Z,3252
2016-06-06T15:28:29.312Z,3264
2016-06-06T15:29:38.909Z,3264
2016-06-06T15:30:29.834Z,3264
2016-06-06T15:31:29.383Z,3248
2016-06-06T15:32:29.417Z,3240
2016-06-06T15:33:29.435Z,3224
2016-06-06T15:34:29.470Z,3216
2016-06-06T15:35:29.503Z,3208
2016-06-06T15:36:29.537Z,3204
2016-06-06T15:37:29.555Z,3204
2016-06-06T15:38:29.589Z,3200
2016-06-06T15:39:29.624Z,3196
2016-06-06T15:40:29.641Z,3184
2016-06-06T15:41:29.675Z,3176
2016-06-06T15:42:29.709Z,3176
2016-06-06T15:43:29.743Z,3156
2016-06-06T15:44:30.137Z,3144
2016-06-06T15:45:30.436Z,3140
2016-06-06T15:46:29.811Z,3116
2016-06-06T15:47:29.848Z,3116
2016-06-06T15:48:29.882Z,3104
2016-06-06T15:49:29.901Z,3100
2016-06-06T15:50:29.935Z,3100
2016-06-06T15:51:29.952Z,3072
2016-06-06T15:52:29.987Z,3128
2016-06-06T15:53:30.020Z,3112
2016-06-06T15:54:30.039Z,3056
2016-06-06T15:55:30.073Z,3008
2016-06-06T15:56:30.106Z,2976
2016-06-06T15:57:30.125Z,2944
2016-06-06T15:58:30.175Z,2916
2016-06-06T15:59:30.506Z,2896
2016-06-06T16:00:30.068Z,2884
2016-06-06T16:01:30.242Z,2868
2016-06-06T16:02:30.261Z,2928
2016-06-06T16:03:30.295Z,3128
2016-06-06T16:04:30.375Z,3036
2016-06-06T16:05:30.191Z,3088
2016-06-06T16:06:30.381Z,3092
2016-06-06T16:07:30.414Z,3032
2016-06-06T16:08:30.464Z,2888
2016-06-06T16:09:30.311Z,2836
2016-06-06T16:10:30.533Z,2980
2016-06-06T16:11:30.519Z,2968
2016-06-06T16:12:30.585Z,2960
2016-06-06T16:13:30.431Z,2956
2016-06-06T16:14:30.466Z,2852
2016-06-06T16:15:31.186Z,2884
2016-06-06T16:16:30.689Z,2888
2016-06-06T16:17:30.691Z,2768
2016-06-06T16:18:30.726Z,2624
2016-06-06T16:19:30.760Z,2604
2016-06-06T16:20:30.778Z,2592
2016-06-06T16:21:30.812Z,2592
2016-06-06T16:22:30.862Z,2608
2016-06-06T16:23:30.865Z,2688
2016-06-06T16:24:30.882Z,2680
2016-06-06T16:25:30.760Z,2684
2016-06-06T16:26:30.951Z,2620
2016-06-06T16:27:30.984Z,2560
2016-06-06T16:28:31.003Z,2592
2016-06-06T16:29:31.849Z,2556
2016-06-06T16:30:32.070Z,2504
2016-06-06T16:31:31.089Z,2492
2016-06-06T16:32:31.123Z,2496
2016-06-06T16:33:31.156Z,2488
2016-06-06T16:34:31.190Z,2476
2016-06-06T16:35:31.209Z,2472
2016-06-06T16:36:31.228Z,2468
2016-06-06T16:37:31.261Z,2436
2016-06-06T16:38:31.280Z,2404
2016-06-06T16:39:31.361Z,2364
2016-06-06T16:40:31.347Z,2340
2016-06-06T16:41:31.366Z,2312
2016-06-06T16:42:31.400Z,2276
2016-06-06T16:43:31.438Z,2236
2016-06-06T16:44:32.196Z,2172
2016-06-06T16:45:32.125Z,2100
2016-06-06T16:46:31.539Z,2024
2016-06-06T16:47:31.579Z,1940
2016-06-06T16:48:31.630Z,1864
2016-06-06T16:49:31.650Z,1800
2016-06-06T16:50:31.512Z,1736
2016-06-06T16:51:31.689Z,1668
2016-06-06T16:52:31.725Z,1604
2016-06-06T16:53:31.775Z,1552
2016-06-06T16:54:31.778Z,1512
2016-06-06T16:55:31.814Z,1484
2016-06-06T16:56:31.832Z,1472
2016-06-06T16:57:31.868Z,1456
2016-06-06T16:58:31.902Z,1440
2016-06-06T16:59:32.435Z,1428
2016-06-06T17:00:31.986Z,1412
2016-06-06T17:01:32.020Z,1384
2016-06-06T17:02:32.008Z,1344
2016-06-06T17:03:32.042Z,1300
2016-06-06T17:04:32.059Z,1260
2016-06-06T17:05:32.094Z,1228
2016-06-06T17:06:31.971Z,1212
2016-06-06T17:07:32.162Z,1196
2016-06-06T17:08:32.195Z,1188
2016-06-06T17:09:32.058Z,1188
2016-06-06T17:10:32.233Z,1188
2016-06-06T17:11:32.266Z,1184
2016-06-06T17:12:32.316Z,1168
2016-06-06T17:13:32.334Z,1156
2016-06-06T17:14:33.227Z,1136
2016-06-06T17:15:32.839Z,1116
2016-06-06T17:16:32.405Z,1096
2016-06-06T17:17:32.438Z,1068
2016-06-06T17:18:32.457Z,1048
2016-06-06T17:19:32.491Z,1032
2016-06-06T17:20:32.540Z,1016
2016-06-06T17:21:32.559Z,1004
2016-06-06T17:22:32.577Z,992
2016-06-06T17:23:32.611Z,976
2016-06-06T17:24:32.645Z,948
2016-06-06T17:25:32.663Z,928
2016-06-06T17:26:32.697Z,912
2016-06-06T17:27:32.746Z,900
2016-06-06T17:28:32.749Z,892
2016-06-06T17:29:33.626Z,892
2016-06-06T17:30:33.568Z,880
2016-06-06T17:31:32.851Z,872
2016-06-06T17:32:32.869Z,852
2016-06-06T17:33:32.904Z,832
2016-06-06T17:34:32.953Z,816
2016-06-06T17:35:32.955Z,796
2016-06-06T17:36:32.817Z,772
2016-06-06T17:37:33.008Z,756
2016-06-06T17:38:33.025Z,740
2016-06-06T17:39:33.061Z,728
2016-06-06T17:40:33.094Z,716
2016-06-06T17:41:33.112Z,704
2016-06-06T17:42:33.162Z,692
2016-06-06T17:43:33.180Z,684
2016-06-06T17:44:33.214Z,680
2016-06-06T17:45:33.263Z,672
2016-06-06T17:46:33.267Z,664
2016-06-06T17:47:33.300Z,652
2016-06-06T17:48:33.318Z,636
2016-06-06T17:49:33.338Z,620
2016-06-06T17:50:33.371Z,600
2016-06-06T17:51:33.404Z,580
2016-06-06T17:52:33.298Z,568
2016-06-06T17:53:33.457Z,556
2016-06-06T17:54:33.491Z,544
2016-06-06T17:55:33.540Z,528
2016-06-06T17:56:33.543Z,520
2016-06-06T17:57:33.577Z,512
2016-06-06T17:58:33.595Z,504
2016-06-06T17:59:34.926Z,492
2016-06-06T18:00:33.851Z,488
2016-06-06T18:01:33.682Z,480
2016-06-06T18:02:33.700Z,472
2016-06-06T18:03:33.578Z,464
2016-06-06T18:04:33.768Z,456
2016-06-06T18:05:33.786Z,452
2016-06-06T18:06:33.664Z,452
2016-06-06T18:07:33.854Z,448
2016-06-06T18:08:33.872Z,448
2016-06-06T18:09:33.906Z,444
2016-06-06T18:10:33.925Z,440
2016-06-06T18:11:33.958Z,436
2016-06-06T18:12:33.992Z,440
2016-06-06T18:13:34.027Z,440
2016-06-06T18:14:34.061Z,436
2016-06-06T18:15:34.204Z,436
2016-06-06T18:16:34.113Z,432
2016-06-06T18:17:34.131Z,428
2016-06-06T18:18:34.165Z,428
2016-06-06T18:19:34.183Z,420
2016-06-06T18:20:34.218Z,416
2016-06-06T18:21:34.236Z,416
2016-06-06T18:22:34.285Z,412
2016-06-06T18:23:34.319Z,412
2016-06-06T18:24:34.321Z,408
2016-06-06T18:25:34.357Z,408
2016-06-06T18:26:34.389Z,404
2016-06-06T18:27:34.423Z,400
2016-06-06T18:28:34.442Z,396
2016-06-06T18:29:35.382Z,392
2016-06-06T18:30:34.509Z,392
2016-06-06T18:31:34.529Z,384
2016-06-06T18:32:34.546Z,384
2016-06-06T18:33:34.580Z,384
2016-06-06T18:34:34.614Z,384
2016-06-06T18:35:34.679Z,380
2016-06-06T18:36:34.511Z,376
2016-06-06T18:37:34.684Z,372
2016-06-06T18:38:34.719Z,368
2016-06-06T18:39:34.753Z,364
2016-06-06T18:40:34.771Z,360
2016-06-06T18:41:34.852Z,352
2016-06-06T18:42:34.839Z,352
2016-06-06T18:43:34.700Z,348
2016-06-06T18:44:34.767Z,340
2016-06-06T18:45:34.925Z,332
2016-06-06T18:46:34.944Z,324
2016-06-06T18:47:34.977Z,316
2016-06-06T18:48:34.996Z,312
2016-06-06T18:49:35.046Z,300
2016-06-06T18:50:35.048Z,288
2016-06-06T18:51:35.082Z,284
2016-06-06T18:52:35.116Z,276
2016-06-06T18:53:35.135Z,264
2016-06-06T18:54:35.012Z,260
2016-06-06T18:55:35.201Z,248
2016-06-06T18:56:35.236Z,240
2016-06-06T18:57:35.254Z,232
2016-06-06T18:58:35.288Z,220
2016-06-06T18:59:35.526Z,212
2016-06-06T19:00:35.184Z,200
2016-06-06T19:01:35.358Z,192
2016-06-06T19:02:35.392Z,184
2016-06-06T19:03:35.270Z,176
2016-06-06T19:04:35.445Z,168
2016-06-06T19:05:35.478Z,164
2016-06-06T19:06:35.512Z,152
2016-06-06T19:07:35.531Z,144
2016-06-06T19:08:35.565Z,136
2016-06-06T19:09:35.442Z,128
2016-06-06T19:10:35.633Z,124
2016-06-06T19:11:35.651Z,120
2016-06-06T19:12:35.670Z,116
2016-06-06T19:13:35.703Z,112
2016-06-06T19:14:35.738Z,112
2016-06-06T19:15:35.755Z,108
2016-06-06T19:16:35.822Z,108
2016-06-06T19:17:35.839Z,104
2016-06-06T19:18:35.842Z,100
2016-06-06T19:19:35.860Z,96
2016-06-06T19:20:35.910Z,88
2016-06-06T19:21:35.928Z,88
2016-06-06T19:22:35.963Z,88
2016-06-06T19:23:35.980Z,84
2016-06-06T19:24:35.999Z,80
2016-06-06T19:25:35.892Z,80
2016-06-06T19:26:36.066Z,76
2016-06-06T19:27:36.085Z,76
2016-06-06T19:28:36.118Z,68
2016-06-06T19:29:36.153Z,68
2016-06-06T19:30:36.171Z,64
2016-06-06T19:31:36.205Z,60
2016-06-06T19:32:36.082Z,60
2016-06-06T19:33:36.257Z,60
2016-06-06T19:34:37.417Z,56
2016-06-06T19:35:36.325Z,52
2016-06-06T19:36:36.343Z,52
2016-06-06T19:37:36.378Z,52
2016-06-06T19:38:36.240Z,52
2016-06-06T19:39:36.430Z,48
2016-06-06T19:40:36.448Z,44
2016-06-06T19:41:36.326Z,40
2016-06-06T19:42:36.500Z,40
2016-06-06T19:43:36.534Z,36
2016-06-06T19:44:36.569Z,32
2016-06-06T19:45:37.696Z,32
2016-06-06T19:46:36.620Z,32
2016-06-06T19:47:36.655Z,32
2016-06-06T19:48:36.688Z,28
2016-06-06T19:49:36.722Z,28
2016-06-06T19:50:36.740Z,24
2016-06-06T19:51:36.602Z,24
2016-06-06T19:52:36.793Z,20
2016-06-06T19:53:36.843Z,20
2016-06-06T19:54:36.845Z,16
2016-06-06T19:55:36.863Z,20
2016-06-06T19:56:36.897Z,16
2016-06-06T19:57:36.932Z,16
2016-06-06T19:58:36.965Z,12
2016-06-06T19:59:36.827Z,12
2016-06-06T20:00:37.017Z,8
2016-06-06T20:01:37.035Z,12
2016-06-06T20:02:37.070Z,8
2016-06-06T20:03:36.931Z,8
2016-06-06T20:04:37.215Z,8
2016-06-06T20:05:37.485Z,4
2016-06-06T20:06:37.236Z,8
2016-06-06T20:07:37.209Z,4
2016-06-06T20:08:37.226Z,4
2016-06-06T20:09:37.261Z,8
2016-06-06T20:10:37.294Z,4
2016-06-06T20:11:37.344Z,4
2016-06-06T20:12:37.362Z,4
2016-06-06T20:13:37.380Z,0
2016-06-06T20:14:37.399Z,0
2016-06-06T20:15:37.433Z,4
2016-06-06T20:16:37.450Z,4
2016-06-06T20:17:37.485Z,4
2016-06-06T20:18:37.503Z,4
2016-06-06T20:19:37.881Z,0
2016-06-06T20:20:37.415Z,0
2016-06-06T20:21:37.622Z,0
2016-06-06T20:22:37.624Z,0
2016-06-06T20:23:37.641Z,0
2016-06-06T20:24:37.676Z,0
2016-06-06T20:25:37.741Z,0
2016-06-06T20:26:37.727Z,0
2016-06-06T20:27:37.762Z,0
2016-06-06T20:28:37.796Z,0
2016-06-06T20:29:37.815Z,0
2016-06-06T20:30:37.863Z,0
2016-06-06T20:31:37.866Z,0
2016-06-06T20:32:37.901Z,0
2016-06-06T20:33:37.919Z,0
2016-06-06T20:34:37.969Z,0
2016-06-06T20:35:38.799Z,0
2016-06-06T20:36:38.004Z,0
2016-06-06T20:37:38.039Z,0
2016-06-06T20:38:38.073Z,0
2016-06-06T20:39:38.091Z,0
2016-06-06T20:40:38.125Z,0
2016-06-06T20:41:38.143Z,0
2016-06-06T20:42:38.178Z,0
2016-06-06T20:43:38.195Z,0
2016-06-06T20:44:38.230Z,0
2016-06-06T20:45:38.357Z,0
2016-06-06T20:46:38.281Z,0
2016-06-06T20:47:38.159Z,0
2016-06-06T20:48:38.334Z,0
2016-06-06T20:49:38.368Z,0
2016-06-06T20:50:38.527Z,0
2016-06-06T20:51:38.419Z,0
2016-06-06T20:52:38.454Z,0
2016-06-06T20:53:38.488Z,0
2016-06-06T20:54:38.522Z,0
2016-06-06T20:55:38.524Z,0
2016-06-06T20:56:38.558Z,0
2016-06-06T20:57:38.593Z,0
2016-06-06T20:58:38.611Z,0
2016-06-06T20:59:38.629Z,0
2016-06-06T21:00:38.523Z,0
2016-06-06T21:01:38.729Z,0
2016-06-06T21:02:38.732Z,0
2016-06-06T21:03:38.750Z,0
2016-06-06T21:04:38.783Z,0
2016-06-06T21:05:39.301Z,0
2016-06-06T21:06:38.821Z,0
2016-06-06T21:07:38.854Z,0
2016-06-06T21:08:38.903Z,0
2016-06-06T21:09:38.906Z,0
2016-06-06T21:10:38.815Z,0
2016-06-06T21:11:38.959Z,0
2016-06-06T21:12:38.836Z,0
2016-06-06T21:13:38.870Z,0
2016-06-06T21:14:39.045Z,0
2016-06-06T21:15:39.079Z,0
2016-06-06T21:16:39.112Z,0
2016-06-06T21:17:39.131Z,0
2016-06-06T21:18:39.164Z,0
2016-06-06T21:19:39.184Z,0
2016-06-06T21:20:39.107Z,0
2016-06-06T21:21:39.250Z,0
2016-06-06T21:22:39.269Z,0
2016-06-06T21:23:39.288Z,0
2016-06-06T21:24:39.321Z,0
2016-06-06T21:25:39.355Z,0
2016-06-06T21:26:39.389Z,0
2016-06-06T21:27:39.424Z,0
2016-06-06T21:28:39.441Z,0
2016-06-06T21:29:39.444Z,0
2016-06-06T21:30:39.338Z,0
2016-06-06T21:31:39.512Z,0
2016-06-06T21:32:39.530Z,0
2016-06-06T21:33:39.579Z,0
2016-06-06T21:34:39.582Z,0
2016-06-06T21:35:40.335Z,0
2016-06-06T21:36:39.651Z,0
2016-06-06T21:37:39.512Z,0
2016-06-06T21:38:39.703Z,0
2016-06-06T21:39:41.471Z,0
2016-06-06T21:40:39.756Z,0
2016-06-06T21:41:39.633Z,0
2016-06-06T21:42:39.807Z,0
2016-06-06T21:43:39.841Z,0
2016-06-06T21:44:39.859Z,0
2016-06-06T21:45:39.940Z,0
2016-06-06T21:46:39.911Z,0
2016-06-06T21:47:39.945Z,0
2016-06-06T21:48:39.980Z,0
2016-06-06T21:49:39.998Z,0
2016-06-06T21:50:40.125Z,0
2016-06-06T21:51:40.066Z,0
2016-06-06T21:52:40.084Z,0
2016-06-06T21:53:40.103Z,0
2016-06-06T21:54:40.136Z,0
2016-06-06T21:55:40.155Z,0
2016-06-06T21:56:40.188Z,0
2016-06-06T21:57:40.238Z,0
2016-06-06T21:58:40.241Z,0
2016-06-06T21:59:40.260Z,0
2016-06-06T22:00:40.293Z,0
2016-06-06T22:01:40.327Z,0
2016-06-06T22:02:40.346Z,0
2016-06-06T22:03:40.364Z,0
2016-06-06T22:04:40.241Z,0
2016-06-06T22:05:40.791Z,0
2016-06-06T22:06:40.450Z,0
2016-06-06T22:07:40.468Z,0
2016-06-06T22:08:40.502Z,0
2016-06-06T22:09:40.552Z,0
2016-06-06T22:10:40.570Z,0
2016-06-06T22:11:40.589Z,0
2016-06-06T22:12:40.607Z,0
2016-06-06T22:13:40.641Z,0
2016-06-06T22:14:40.675Z,0
2016-06-06T22:15:40.693Z,0
2016-06-06T22:16:40.712Z,0
2016-06-06T22:17:40.745Z,0